Time;durP1;ratioP1;P1;durP2;ratioP2;P2;SDS_P1;SDS_P2;PMS_P1;PMS_P2;Temp;Humidity;BMP_temperature;BMP_pressure;BME280_temperature;BME280_humidity;BME280_pressure;Samples;Min_cycle;Max_cycle;Signal;HPM_P1;HPM_P2
2023/01/25 06:53:34;;;;;;;6.53;4.85;;;;;;;;;;5896469;23;20026;-83
2023/01/25 06:56:09;;;;;;;6.30;5.18;;;;;;;;;;4901895;29;20558;-83
2023/01/25 06:58:35;;;;;;;6.28;5.00;;;;;;;;;;4918963;29;20502;-82
2023/01/25 07:01:06;;;;;;;6.38;5.18;;;;;;;;;;4902357;29;20168;-82
2023/01/25 07:03:33;;;;;;;6.30;4.90;;;;;;;;;;4902262;29;20054;-83
2023/01/25 07:06:04;;;;;;;6.70;5.00;;;;;;;;;;4901767;29;20083;-83
2023/01/25 07:08:30;;;;;;;6.95;5.43;;;;;;;;;;4918565;29;20024;-83
2023/01/25 07:10:59;;;;;;;7.72;5.60;;;;;;;;;;4918863;29;20032;-83
2023/01/25 16:47:36;;;;;;;22.97;17.37;;;;;;;;;;4932522;29;20043;-91
2023/01/25 21:09:04;;;;;;;14.23;10.90;;;;;;;;;;5258392;23;20472;-85
2023/01/25 21:11:30;;;;;;;14.23;10.60;;;;;;;;;;4908427;29;20111;-83
2023/01/25 21:13:56;;;;;;;15.82;11.15;;;;;;;;;;4905121;29;20032;-84
2023/01/25 21:16:22;;;;;;;14.80;11.10;;;;;;;;;;4898761;29;20037;-84
2023/01/25 21:18:54;;;;;;;15.05;10.70;;;;;;;;;;4898226;29;20467;-84
2023/01/25 21:21:30;;;;;;;18.27;11.38;;;;;;;;;;4898144;29;20039;-83
2023/01/25 21:23:58;;;;;;;16.75;11.32;;;;;;;;;;4898002;29;20033;-83
2023/01/25 21:26:29;;;;;;;17.33;11.80;;;;;;;;;;4888108;29;20025;-83
2023/01/25 21:28:55;;;;;;;16.52;12.20;;;;;;;;;;4879465;29;20029;-83
2023/01/25 21:31:32;;;;;;;22.58;16.00;;;;;;;;;;4879394;29;20166;-84
2023/01/25 21:33:58;;;;;;;20.10;14.10;;;;;;;;;;4862551;29;20029;-85
2023/01/25 21:36:24;;;;;;;21.77;15.10;;;;;;;;;;4879392;29;20037;-85
2023/01/25 21:38:52;;;;;;;18.70;12.75;;;;;;;;;;4879410;29;20036;-84
2023/01/25 21:41:21;;;;;;;19.70;13.55;;;;;;;;;;4879390;29;20093;-83
2023/01/25 21:46:32;;;;;;;18.40;12.45;;;;;;;;;;4899631;29;20039;-83
2023/01/25 21:51:48;;;;;;;19.80;14.00;;;;;;;;;;4901695;29;20044;-85
2023/01/25 21:54:22;;;;;;;21.17;13.90;;;;;;;;;;4901298;29;20021;-86
2023/01/25 21:56:49;;;;;;;23.83;15.05;;;;;;;;;;4901681;29;20031;-85
2023/01/25 21:59:15;;;;;;;22.02;14.82;;;;;;;;;;4901670;29;20495;-84
2023/01/25 22:01:43;;;;;;;20.85;13.75;;;;;;;;;;4882658;29;20041;-84
2023/01/25 22:04:10;;;;;;;20.38;13.85;;;;;;;;;;4882577;29;20028;-84
2023/01/25 22:06:36;;;;;;;23.02;14.43;;;;;;;;;;4882444;29;20523;-84
2023/01/25 22:09:11;;;;;;;22.67;14.38;;;;;;;;;;4882827;29;20044;-83
2023/01/25 22:11:36;;;;;;;26.35;15.80;;;;;;;;;;4865748;29;20128;-83
2023/01/25 22:14:02;;;;;;;22.33;15.07;;;;;;;;;;4882644;29;20060;-82
2023/01/25 22:16:29;;;;;;;25.45;16.55;;;;;;;;;;4866704;29;20036;-85
2023/01/25 22:18:55;;;;;;;24.92;16.25;;;;;;;;;;4901469;29;20364;-83
2023/01/25 22:21:29;;;;;;;22.33;16.05;;;;;;;;;;4901527;29;20060;-83
2023/01/25 22:23:55;;;;;;;23.30;16.08;;;;;;;;;;4901655;29;20025;-82
2023/01/25 22:26:25;;;;;;;21.23;13.50;;;;;;;;;;4901550;29;20043;-84
2023/01/25 22:28:56;;;;;;;20.20;13.07;;;;;;;;;;4900184;29;20124;-85
2023/01/25 22:31:25;;;;;;;18.65;12.40;;;;;;;;;;4900915;29;20033;-82
2023/01/25 22:33:51;;;;;;;21.77;13.35;;;;;;;;;;4880124;29;20040;-83
2023/01/25 22:36:19;;;;;;;22.05;13.85;;;;;;;;;;4882081;29;20033;-84
2023/01/25 22:38:45;;;;;;;18.42;13.15;;;;;;;;;;4882122;29;20499;-84
2023/01/25 22:41:12;;;;;;;20.45;14.13;;;;;;;;;;4881889;29;20033;-84
